Amersfoort, Netherlands
Current Conditions -  °F | °C
As of 10:25 AM on Saturday 29 Nov 2014 (Local Time) from EHDL Reporting Station
Haze Haze  
Wind Chill: 28°   Ceiling: Unl
Heat Index: 36°   Visibility: 3mi
Dew Point: 34°   Wind: 10mph
Humidity: 93%   Direction: 90°E
Pressure: 29.97"   Gusts: NA
Location:  52.16°N, 5.39°E
Report Text: EHDL 290925Z AUTO 09009KT 5000 BR FEW007 SCT400 02/01 Q1015 WHT
Loading
Personal Weather Stations






























Interactive Weather Map New forecast layout! Learn more

10-Day Weather Forecast

Advertisements
Track Severe Weather on mobile